Time;durP1;ratioP1;P1;durP2;ratioP2;P2;SDS_P1;SDS_P2;PMS_P1;PMS_P2;Temp;Humidity;BMP_temperature;BMP_pressure;BME280_temperature;BME280_humidity;BME280_pressure;Samples;Min_cycle;Max_cycle;Signal;HPM_P1;HPM_P2
2021/12/16 00:02:34;;;;;;;27.77;14.17;;;;;;;3.83;100.00;100221.38;4941481;29;20440;-87
2021/12/16 00:07:59;;;;;;;26.73;14.07;;;;;;;2.76;100.00;100068.06;4940012;29;20441;-87
2021/12/16 00:35:16;;;;;;;26.70;12.57;;;;;;;3.04;100.00;100126.28;4861776;29;20413;-87
2021/12/16 00:37:42;;;;;;;32.13;14.90;;;;;;;3.58;100.00;100210.97;4846104;29;20517;-87
2021/12/16 00:40:12;;;;;;;29.13;14.33;;;;;;;3.66;100.00;100242.50;4861493;29;20468;-87
2021/12/16 00:45:34;;;;;;;30.10;13.23;;;;;;;3.52;100.00;100222.94;4861841;29;20457;-88
2021/12/16 00:48:09;;;;;;;28.40;14.43;;;;;;;2.76;100.00;100073.94;4862356;29;20421;-88
2021/12/16 00:55:54;;;;;;;30.83;13.10;;;;;;;2.18;100.00;99989.78;4882247;29;20513;-88
2021/12/16 00:58:25;;;;;;;31.47;14.80;;;;;;;3.23;100.00;100164.59;4864208;29;20519;-87
2021/12/16 01:01:09;;;;;;;39.87;16.43;;;;;;;3.65;100.00;100235.78;4879669;29;20461;-88
2021/12/16 01:03:48;;;;;;;31.47;15.13;;;;;;;3.62;100.00;100223.00;4879430;29;20432;-88
2021/12/16 01:06:33;;;;;;;30.80;14.37;;;;;;;2.70;100.00;100080.91;4899684;29;20433;-88
2021/12/16 01:34:01;;;;;;;26.63;11.00;;;;;;;1.76;100.00;99940.44;4937761;29;20416;-88
2021/12/16 01:53:02;;;;;;;33.23;13.30;;;;;;;2.87;100.00;100143.22;4899400;29;20238;-89
2021/12/16 01:55:32;;;;;;;27.80;10.97;;;;;;;2.78;100.00;100141.56;4897810;29;20434;-87
2021/12/16 01:58:10;;;;;;;32.43;14.73;;;;;;;2.23;100.00;100041.00;4880895;29;20450;-87
2021/12/16 02:00:57;;;;;;;34.90;14.77;;;;;;;2.96;100.00;100168.16;4899171;29;20554;-88
2021/12/16 02:03:38;;;;;;;24.90;11.70;;;;;;;2.40;100.00;100093.28;4883895;29;20431;-88
2021/12/16 02:06:22;;;;;;;27.37;11.43;;;;;;;3.07;100.00;100189.06;4899400;29;20435;-88
2021/12/16 02:08:50;;;;;;;34.80;14.93;;;;;;;2.70;100.00;100140.03;4883253;29;20517;-89
2021/12/16 02:37:35;;;;;;;29.60;11.87;;;;;;;2.35;100.00;100047.94;4940872;29;20437;-87
2021/12/16 02:40:05;;;;;;;32.73;14.80;;;;;;;3.12;100.00;100185.31;4928416;29;20485;-87
2021/12/16 02:42:50;;;;;;;35.40;14.90;;;;;;;2.71;100.00;100130.16;4955694;29;20441;-88
2021/12/16 02:50:44;;;;;;;35.60;14.33;;;;;;;1.67;100.00;99948.75;4938975;29;20934;-86
2021/12/16 02:53:09;;;;;;;33.90;14.67;;;;;;;1.81;100.00;99978.28;4921687;29;20512;-88
2021/12/16 02:55:34;;;;;;;45.17;21.00;;;;;;;0.85;100.00;99808.53;4939124;29;20161;-87
2021/12/16 02:58:00;;;;;;;30.60;12.60;;;;;;;3.04;100.00;100201.31;4921898;29;20174;-87
2021/12/16 03:00:36;;;;;;;33.30;13.70;;;;;;;0.91;100.00;99847.28;4938241;29;20193;-87
2021/12/16 03:03:02;;;;;;;37.30;15.73;;;;;;;3.06;100.00;100205.69;4921898;29;20213;-87
2021/12/16 03:05:27;;;;;;;26.00;12.17;;;;;;;2.04;100.00;100010.19;4938947;29;20855;-87
2021/12/16 03:07:53;;;;;;;31.80;12.30;;;;;;;1.67;100.00;100002.03;4927289;29;20178;-86
2021/12/16 03:13:07;;;;;;;27.57;12.27;;;;;;;2.08;100.00;100074.66;4947433;29;20207;-87
2021/12/16 03:21:07;;;;;;;28.50;12.83;;;;;;;1.74;100.00;100029.25;4951169;29;20992;-88
2021/12/16 03:23:51;;;;;;;24.67;9.80;;;;;;;2.57;100.00;100154.72;4924899;29;20425;-89
2021/12/16 03:29:35;;;;;;;26.03;10.93;;;;;;;2.77;100.00;100203.19;4942467;29;20441;-87
2021/12/16 03:37:14;;;;;;;25.67;11.47;;;;;;;1.59;100.00;100044.53;4945877;29;20544;-87
2021/12/16 03:39:44;;;;;;;26.40;12.27;;;;;;;2.51;100.00;100225.03;4922819;29;20559;-88
2021/12/16 03:42:12;;;;;;;24.70;10.10;;;;;;;0.32;100.00;99813.75;4925443;29;20428;-89
2021/12/16 03:44:59;;;;;;;26.70;11.63;;;;;;;2.50;100.00;100203.28;4902846;29;20588;-88
2021/12/16 03:47:42;;;;;;;24.57;9.57;;;;;;;2.23;100.00;100163.38;4900690;29;20407;-88
2021/12/16 03:50:20;;;;;;;27.93;11.93;;;;;;;1.63;100.00;100074.84;4898678;29;20448;-86
2021/12/16 03:52:49;;;;;;;26.40;10.90;;;;;;;1.43;100.00;100067.19;4900313;29;20510;-87
2021/12/16 03:55:18;;;;;;;23.40;9.63;;;;;;;2.33;100.00;100206.78;4901903;29;20414;-87
2021/12/16 03:57:44;;;;;;;29.97;13.33;;;;;;;2.17;100.00;100188.69;4910060;29;20485;-86
2021/12/16 04:00:26;;;;;;;24.40;10.67;;;;;;;-0.98;100.00;99650.97;4915006;29;20459;-88
2021/12/16 04:02:52;;;;;;;24.13;8.90;;;;;;;-0.76;100.00;99684.50;4909661;29;20470;-89
2021/12/16 04:05:19;;;;;;;25.27;8.67;;;;;;;0.16;100.00;99866.25;4919149;29;20499;-88
2021/12/16 04:07:45;;;;;;;20.10;8.60;;;;;;;2.17;100.00;100193.69;4915495;29;20431;-87
2021/12/16 04:10:16;;;;;;;23.20;10.20;;;;;;;1.91;100.00;100155.56;4903774;29;20510;-86
2021/12/16 04:12:42;;;;;;;19.07;8.87;;;;;;;0.03;100.00;99838.47;4933160;29;20252;-87
2021/12/16 04:15:09;;;;;;;28.37;12.57;;;;;;;2.27;100.00;100202.88;4940066;29;20421;-87
2021/12/16 04:17:35;;;;;;;21.87;9.23;;;;;;;2.23;100.00;100198.34;4950761;29;20177;-87
2021/12/16 04:20:07;;;;;;;26.40;11.23;;;;;;;1.72;100.00;100077.28;4934551;29;20485;-85
2021/12/16 04:22:41;;;;;;;30.80;11.70;;;;;;;2.45;100.00;100194.50;4922447;29;20445;-86
2021/12/16 04:25:12;;;;;;;20.50;8.70;;;;;;;-1.02;100.00;99590.94;4937875;29;20470;-88
2021/12/16 04:27:39;;;;;;;23.80;10.60;;;;;;;0.34;100.00;99822.22;4925077;29;20537;-88
2021/12/16 04:30:08;;;;;;;22.07;9.80;;;;;;;1.36;100.00;99995.09;4921341;29;20430;-89
2021/12/16 04:32:34;;;;;;;25.37;9.33;;;;;;;1.62;100.00;100040.66;4935674;29;20433;-87
2021/12/16 04:34:59;;;;;;;27.40;11.60;;;;;;;0.94;100.00;99916.47;4936721;29;20409;-88
2021/12/16 04:37:25;;;;;;;25.83;12.13;;;;;;;1.89;100.00;100071.28;4920485;29;20172;-88
2021/12/16 04:39:50;;;;;;;23.03;10.00;;;;;;;0.05;100.00;99794.72;4936864;29;20197;-88
2021/12/16 04:42:20;;;;;;;25.90;10.93;;;;;;;2.04;100.00;100105.06;4936599;29;20158;-88
2021/12/16 04:44:46;;;;;;;19.40;8.90;;;;;;;2.24;100.00;100153.53;4935872;29;20189;-88
2021/12/16 04:47:13;;;;;;;22.20;9.93;;;;;;;2.58;100.00;100213.97;4935850;29;20409;-88
2021/12/16 04:49:39;;;;;;;22.83;9.10;;;;;;;2.05;100.00;100119.31;4919418;29;20794;-88
2021/12/16 04:52:12;;;;;;;27.20;11.03;;;;;;;2.57;100.00;100200.59;4921809;29;20410;-89
2021/12/16 04:54:40;;;;;;;24.40;11.50;;;;;;;2.25;100.00;100189.41;4936425;29;20461;-88
2021/12/16 04:57:06;;;;;;;21.57;8.83;;;;;;;-1.68;100.00;99511.16;4919367;29;20488;-87
2021/12/16 04:59:35;;;;;;;24.70;11.47;;;;;;;2.07;100.00;100138.69;4919278;29;20449;-88
2021/12/16 05:02:14;;;;;;;28.63;11.13;;;;;;;1.47;100.00;100036.81;4971633;23;20514;-86
2021/12/16 05:04:41;;;;;;;26.40;11.47;;;;;;;2.53;100.00;100211.03;4936328;29;20446;-87
2021/12/16 05:07:28;;;;;;;27.33;11.70;;;;;;;2.56;100.00;100218.81;4940194;28;20429;-87
2021/12/16 05:10:04;;;;;;;22.17;10.10;;;;;;;1.25;100.00;100019.81;4882474;29;20431;-86
2021/12/16 05:12:35;;;;;;;25.90;10.80;;;;;;;2.44;100.00;100172.78;4881916;29;20479;-88
2021/12/16 05:15:06;;;;;;;18.83;8.60;;;;;;;2.23;100.00;100140.91;4900681;29;20947;-87
2021/12/16 05:17:38;;;;;;;20.47;9.37;;;;;;;1.83;100.00;100085.72;4884565;29;20537;-87
2021/12/16 05:20:09;;;;;;;24.60;9.77;;;;;;;2.65;100.00;100233.72;4885472;29;20470;-87
2021/12/16 05:28:12;;;;;;;28.60;13.93;;;;;;;-0.11;100.00;99760.09;4825652;29;20431;-87
2021/12/16 05:30:38;;;;;;;27.73;12.63;;;;;;;2.40;100.00;100225.72;4825821;29;20813;-88
2021/12/16 05:33:05;;;;;;;21.70;8.50;;;;;;;0.95;100.00;99978.94;4813128;29;20438;-87
2021/12/16 05:35:32;;;;;;;28.57;11.80;;;;;;;-1.76;100.00;99521.97;4805594;29;20462;-88
2021/12/16 05:37:59;;;;;;;22.33;10.77;;;;;;;1.69;100.00;100110.34;4840328;29;20438;-88
2021/12/16 05:40:27;;;;;;;23.83;10.40;;;;;;;2.41;100.00;100231.59;4827737;29;20487;-87
2021/12/16 05:42:57;;;;;;;31.57;15.77;;;;;;;2.47;100.00;100233.03;4865408;29;20424;-87
2021/12/16 05:45:23;;;;;;;353.67;98.17;;;;;;;2.49;100.00;100231.53;4885672;29;20428;-89
2021/12/16 05:47:54;;;;;;;54.73;21.90;;;;;;;2.44;100.00;100237.75;4887481;29;20416;-88
2021/12/16 05:50:21;;;;;;;49.93;20.63;;;;;;;0.70;100.00;99924.25;4877595;29;20420;-88
2021/12/16 05:52:47;;;;;;;41.97;18.13;;;;;;;0.74;100.00;99951.22;4876438;29;20432;-86
2021/12/16 05:55:15;;;;;;;54.37;20.97;;;;;;;0.08;100.00;99827.34;4911339;29;20451;-87
2021/12/16 05:57:42;;;;;;;30.93;14.83;;;;;;;0.09;100.00;99803.31;4903151;29;20702;-86
2021/12/16 06:00:13;;;;;;;45.33;19.33;;;;;;;0.14;100.00;99822.91;4879161;29;20467;-86
2021/12/16 06:02:40;;;;;;;29.07;11.43;;;;;;;0.94;100.00;99956.34;4876883;29;21135;-87
2021/12/16 06:05:06;;;;;;;19.43;9.40;;;;;;;0.54;100.00;99860.63;4918876;29;20497;-87
2021/12/16 06:07:32;;;;;;;25.17;11.87;;;;;;;0.61;100.00;99909.34;4931496;29;20929;-87
2021/12/16 06:09:57;;;;;;;23.17;10.43;;;;;;;2.33;100.00;100190.94;4941458;29;20509;-88
2021/12/16 06:12:24;;;;;;;22.50;9.23;;;;;;;1.93;100.00;100128.22;4940914;29;20207;-89
2021/12/16 06:28:07;;;;;;;34.80;15.13;;;;;;;1.34;100.00;99984.09;4962085;29;20187;-88
2021/12/16 06:30:38;;;;;;;27.87;13.33;;;;;;;0.44;100.00;99857.19;4939279;29;20432;-88
2021/12/16 06:33:08;;;;;;;31.17;13.73;;;;;;;-0.64;99.92;99674.81;4976710;29;20392;-88
2021/12/16 06:35:34;;;;;;;34.50;16.10;;;;;;;-0.30;99.78;99693.66;4961582;28;20479;-88
2021/12/16 06:38:00;;;;;;;58.37;25.47;;;;;;;1.07;99.71;99942.63;4954271;29;20420;-87
2021/12/16 06:40:27;;;;;;;40.77;20.33;;;;;;;0.53;99.08;99816.53;4944578;29;20301;-87
2021/12/16 06:42:55;;;;;;;27.53;11.50;;;;;;;-0.44;99.31;99666.66;4953929;29;20165;-86
2021/12/16 06:45:26;;;;;;;36.00;14.57;;;;;;;-1.15;98.68;99509.44;4952664;29;20492;-89
2021/12/16 06:48:02;;;;;;;35.67;15.00;;;;;;;-0.02;98.62;99690.38;4944803;29;20421;-88
2021/12/16 06:50:44;;;;;;;28.53;13.73;;;;;;;1.33;98.26;99901.66;4962450;29;20431;-88
2021/12/16 06:53:12;;;;;;;25.73;11.60;;;;;;;3.70;96.99;100259.56;4943363;29;20412;-89
2021/12/16 06:55:48;;;;;;;30.20;14.40;;;;;;;3.09;91.82;99877.41;4942840;29;20897;-89
2021/12/16 06:58:24;;;;;;;45.00;19.60;;;;;;;6.75;84.16;100249.31;4940684;29;20506;-88
2021/12/16 07:01:00;;;;;;;27.43;14.07;;;;;;;3.12;81.68;99565.03;4941247;29;20466;-88
2021/12/16 07:03:29;;;;;;;23.43;11.57;;;;;;;7.19;79.60;100179.44;4941796;29;20483;-91
2021/12/16 07:05:56;;;;;;;30.13;12.40;;;;;;;6.60;77.52;100026.81;4943093;29;20464;-90
2021/12/16 07:08:24;;;;;;;28.97;14.57;;;;;;;6.58;76.87;100013.28;4943836;29;20475;-89
2021/12/16 07:10:53;;;;;;;24.90;11.20;;;;;;;7.58;77.11;100243.50;4941432;29;20444;-90
2021/12/16 07:13:29;;;;;;;26.87;13.07;;;;;;;7.78;76.46;100242.34;4941827;29;20420;-90
2021/12/16 07:15:56;;;;;;;36.40;16.17;;;;;;;8.16;76.63;100262.56;4941270;29;20416;-90
2021/12/16 07:18:22;;;;;;;28.33;13.20;;;;;;;6.98;77.13;100143.56;4941714;29;20424;-90
2021/12/16 07:20:48;;;;;;;24.80;10.60;;;;;;;5.84;80.83;100144.53;4943578;29;20448;-89
2021/12/16 07:23:13;;;;;;;31.80;13.30;;;;;;;5.02;79.74;99937.59;4945791;29;20176;-90
2021/12/16 07:25:39;;;;;;;34.97;13.83;;;;;;;3.90;81.06;99806.28;4950117;29;20223;-89
2021/12/16 07:28:07;;;;;;;27.20;11.77;;;;;;;4.73;86.72;100182.81;4947846;29;20183;-90
2021/12/16 07:30:34;;;;;;;39.10;16.83;;;;;;;4.17;89.57;100161.63;4945179;29;20249;-89
2021/12/16 07:33:00;;;;;;;29.53;13.43;;;;;;;1.03;90.10;99633.16;4962473;29;20510;-89
2021/12/16 07:35:26;;;;;;;42.30;19.63;;;;;;;5.10;89.79;100270.25;4933069;28;20449;-89
2021/12/16 07:37:53;;;;;;;26.60;11.87;;;;;;;2.09;88.06;99722.69;4942082;29;20183;-90
2021/12/16 07:40:22;;;;;;;45.10;21.77;;;;;;;5.05;89.49;100256.47;4945417;29;20463;-89
2021/12/16 07:45:36;;;;;;;23.83;11.47;;;;;;;4.66;89.19;100190.63;4962776;29;20450;-88
2021/12/16 07:48:03;;;;;;;40.33;13.87;;;;;;;4.74;89.47;100187.09;4941389;29;20513;-89
2021/12/16 07:50:29;;;;;;;28.30;13.10;;;;;;;3.11;88.89;99928.44;4952818;29;20436;-90
2021/12/16 07:52:54;;;;;;;31.87;14.00;;;;;;;3.52;88.96;99967.66;4949654;29;20412;-89
2021/12/16 07:55:21;;;;;;;32.20;15.67;;;;;;;5.48;88.41;100254.78;4941655;29;20572;-89
2021/12/16 07:57:47;;;;;;;44.80;23.77;;;;;;;5.76;87.63;100248.59;4943872;29;20185;-89
2021/12/16 08:00:25;;;;;;;25.30;12.13;;;;;;;4.71;87.34;100116.63;4963997;29;20493;-89
2021/12/16 08:02:52;;;;;;;23.37;11.47;;;;;;;5.41;87.51;100195.69;4955282;29;20263;-89
2021/12/16 08:05:21;;;;;;;15.07;7.53;;;;;;;5.18;87.32;100188.91;4945754;29;20436;-89
2021/12/16 08:07:47;;;;;;;26.80;12.57;;;;;;;5.73;87.50;100249.25;4947903;29;20420;-88
2021/12/16 08:10:16;;;;;;;17.73;9.67;;;;;;;2.83;86.91;99761.19;4948941;29;20441;-90
2021/12/16 08:12:42;;;;;;;21.97;10.27;;;;;;;5.94;86.21;100243.34;4963222;29;20424;-89
2021/12/16 08:15:09;;;;;;;18.07;8.23;;;;;;;4.46;86.29;99990.13;4947160;29;20456;-92
2021/12/16 08:17:34;;;;;;;18.03;8.63;;;;;;;1.59;86.85;99555.53;4941412;29;20195;-90
2021/12/16 08:20:00;;;;;;;27.37;12.50;;;;;;;3.88;86.91;99897.06;4942948;29;20781;-90
2021/12/16 08:22:26;;;;;;;35.57;16.47;;;;;;;4.82;85.65;100020.50;4943097;29;20586;-90
2021/12/16 08:24:51;;;;;;;21.07;9.90;;;;;;;6.19;84.79;100235.09;4943215;29;20173;-90
2021/12/16 08:27:18;;;;;;;52.60;23.80;;;;;;;2.69;84.74;99631.75;4927262;29;20176;-89
2021/12/16 08:29:45;;;;;;;19.43;9.80;;;;;;;4.76;84.63;99997.47;4944209;29;20215;-91
2021/12/16 08:32:10;;;;;;;24.10;11.43;;;;;;;6.00;85.04;100175.06;4960214;29;20416;-88
2021/12/16 08:34:38;;;;;;;21.80;10.47;;;;;;;5.53;85.21;100148.00;4943685;29;20404;-88
2021/12/16 08:37:09;;;;;;;58.13;28.23;;;;;;;6.19;85.36;100240.13;4932213;29;20240;-89
2021/12/16 08:39:36;;;;;;;35.97;18.50;;;;;;;4.65;86.34;100005.81;4942981;29;20583;-91
2021/12/16 08:42:04;;;;;;;16.73;8.70;;;;;;;3.78;86.37;99932.19;4963548;29;20447;-91
2021/12/16 08:44:30;;;;;;;35.10;13.50;;;;;;;3.13;86.47;99762.72;4941492;29;20468;-89
2021/12/16 08:47:00;;;;;;;33.70;15.73;;;;;;;4.82;86.65;100078.19;4943818;29;20958;-89
2021/12/16 08:49:26;;;;;;;38.97;16.50;;;;;;;2.40;87.28;99676.09;4944948;29;20264;-90
2021/12/16 08:51:55;;;;;;;25.27;11.30;;;;;;;4.31;87.45;100001.47;4951805;29;20462;-89
2021/12/16 08:54:21;;;;;;;22.57;10.13;;;;;;;4.07;87.69;99975.38;4955393;29;20413;-89
2021/12/16 08:56:48;;;;;;;29.17;13.50;;;;;;;4.44;87.30;99979.09;4953788;29;20420;-89
2021/12/16 08:59:14;;;;;;;25.57;12.07;;;;;;;3.27;86.77;99786.34;4957941;29;20392;-89
2021/12/16 09:01:44;;;;;;;22.90;9.43;;;;;;;2.44;86.79;99628.13;4959619;29;20889;-88
2021/12/16 09:04:10;;;;;;;27.67;13.37;;;;;;;4.24;87.29;99926.56;4961304;29;20184;-90
2021/12/16 09:06:38;;;;;;;21.53;10.77;;;;;;;5.82;87.66;100187.09;4964878;28;20432;-90
2021/12/16 09:09:06;;;;;;;20.37;10.83;;;;;;;5.93;88.23;100235.72;4963717;29;20425;-88
2021/12/16 09:11:38;;;;;;;22.50;11.47;;;;;;;2.72;87.75;99647.00;4955104;29;20814;-90
2021/12/16 09:14:05;;;;;;;17.43;9.03;;;;;;;3.59;87.86;99829.75;4954586;29;20416;-90
2021/12/16 09:16:32;;;;;;;20.67;9.77;;;;;;;5.98;89.65;100221.84;4953562;29;20424;-91
2021/12/16 09:18:58;;;;;;;22.37;11.37;;;;;;;4.39;87.71;99940.28;4956750;29;20416;-90
2021/12/16 09:21:27;;;;;;;18.50;9.70;;;;;;;5.15;85.95;100047.25;4957569;29;20464;-89
2021/12/16 09:23:57;;;;;;;14.63;7.80;;;;;;;3.56;86.31;99800.34;4975073;29;20413;-87
2021/12/16 09:26:24;;;;;;;19.97;9.17;;;;;;;4.76;87.04;99957.34;4955681;29;20417;-88
2021/12/16 09:28:51;;;;;;;20.07;11.27;;;;;;;4.82;86.46;99909.25;4957551;29;20452;-89
2021/12/16 09:31:20;;;;;;;17.70;9.57;;;;;;;4.46;86.08;99868.16;4967327;29;20411;-89
2021/12/16 09:33:50;;;;;;;27.07;12.27;;;;;;;5.58;87.56;100096.50;4971459;29;20478;-91
2021/12/16 09:36:22;;;;;;;17.90;9.27;;;;;;;5.20;87.54;99985.72;4943761;29;20866;-89
2021/12/16 09:38:50;;;;;;;31.30;14.23;;;;;;;4.64;88.21;99868.69;4953789;29;20408;-88
2021/12/16 09:41:16;;;;;;;32.33;17.80;;;;;;;5.26;86.41;99938.50;4969095;29;20448;-87
2021/12/16 09:43:45;;;;;;;31.10;15.73;;;;;;;6.14;85.67;100071.38;4945394;29;20420;-88
2021/12/16 09:46:15;;;;;;;30.53;14.37;;;;;;;6.17;86.58;100119.38;4958780;28;20473;-91
2021/12/16 09:48:41;;;;;;;24.93;12.57;;;;;;;3.39;84.96;99624.63;4970483;28;20399;-89
2021/12/16 09:51:10;;;;;;;45.83;24.23;;;;;;;3.39;83.95;99522.94;4970246;28;20496;-91
2021/12/16 09:53:38;;;;;;;26.10;12.60;;;;;;;4.02;84.62;99699.50;4961414;29;20177;-90
2021/12/16 09:56:09;;;;;;;27.20;14.00;;;;;;;2.55;85.41;99476.56;4957654;29;20236;-90
2021/12/16 09:58:41;;;;;;;20.97;11.10;;;;;;;3.05;85.03;99523.69;4975058;29;20161;-89
2021/12/16 10:01:09;;;;;;;16.97;9.37;;;;;;;3.23;83.68;99532.56;4958911;29;20197;-90
2021/12/16 10:03:37;;;;;;;19.57;9.30;;;;;;;4.04;82.96;99650.41;4954003;29;20229;-89
2021/12/16 10:06:04;;;;;;;17.30;7.80;;;;;;;3.41;82.18;99486.38;4952796;29;20444;-90
2021/12/16 10:08:29;;;;;;;21.67;10.07;;;;;;;6.07;81.21;99925.09;4953902;29;20221;-89
2021/12/16 10:10:55;;;;;;;26.53;13.30;;;;;;;3.84;81.33;99572.97;4951491;29;20173;-89
2021/12/16 10:13:38;;;;;;;32.03;12.07;;;;;;;3.40;80.23;99543.81;4954487;29;20179;-89
2021/12/16 10:18:36;;;;;;;22.40;11.00;;;;;;;7.64;80.78;100153.22;4971105;29;20393;-91
2021/12/16 10:21:05;;;;;;;13.57;8.10;;;;;;;3.85;79.78;99501.19;4955026;29;20209;-92
2021/12/16 10:23:35;;;;;;;21.10;10.40;;;;;;;6.38;79.11;99926.41;4952571;29;20185;-88
2021/12/16 10:26:15;;;;;;;15.13;7.57;;;;;;;5.41;79.13;99747.94;4951149;29;20196;-89
2021/12/16 10:28:44;;;;;;;20.30;10.17;;;;;;;4.51;78.72;99542.63;4951571;29;20507;-90
2021/12/16 10:31:21;;;;;;;15.93;8.67;;;;;;;4.60;78.78;99538.25;4963952;29;20176;-90
2021/12/16 10:34:16;;;;;;;16.03;8.43;;;;;;;4.86;77.66;99613.66;4969353;29;20184;-90
2021/12/16 10:36:47;;;;;;;10.33;6.23;;;;;;;5.60;78.50;99763.50;4867398;29;20729;-90
2021/12/16 10:39:14;;;;;;;13.87;7.63;;;;;;;4.29;78.69;99546.91;4887883;29;20187;-87
2021/12/16 10:42:09;;;;;;;13.90;7.27;;;;;;;6.67;78.98;99905.75;4891642;29;20309;-89
2021/12/16 10:44:36;;;;;;;11.70;6.47;;;;;;;4.78;78.92;99582.13;4868140;29;20188;-91
2021/12/16 10:47:10;;;;;;;17.03;9.50;;;;;;;4.64;78.72;99590.38;4853074;29;20200;-91
2021/12/16 10:49:38;;;;;;;31.23;16.53;;;;;;;6.79;78.80;99904.03;4880416;29;20324;-89
2021/12/16 10:52:07;;;;;;;27.90;11.93;;;;;;;6.86;78.95;99939.78;4852139;29;20247;-91
2021/12/16 10:54:38;;;;;;;16.60;8.80;;;;;;;7.89;77.80;100104.41;4850893;29;20194;-92
2021/12/16 10:57:21;;;;;;;25.93;14.87;;;;;;;4.21;78.93;99478.75;4868470;29;20282;-89
2021/12/16 10:59:51;;;;;;;27.47;13.87;;;;;;;8.32;77.01;100114.03;4884879;29;20218;-90
2021/12/16 11:02:21;;;;;;;24.50;14.07;;;;;;;8.47;76.82;100109.06;4887667;29;20235;-89
2021/12/16 11:04:54;;;;;;;12.53;8.03;;;;;;;8.09;77.16;100104.94;4887870;29;20199;-87
2021/12/16 11:07:40;;;;;;;13.47;7.17;;;;;;;5.95;77.08;99739.16;4869139;29;20195;-90
2021/12/16 11:10:21;;;;;;;14.37;7.47;;;;;;;5.05;76.69;99633.34;4886759;29;20216;-89
2021/12/16 11:12:50;;;;;;;17.47;8.00;;;;;;;7.87;76.88;100105.97;4901691;29;20249;-88
2021/12/16 11:15:35;;;;;;;10.07;5.53;;;;;;;8.01;76.38;100105.22;4962875;29;20230;-90
2021/12/16 11:18:10;;;;;;;16.50;8.37;;;;;;;7.94;76.84;100098.06;4955286;29;20235;-88
2021/12/16 11:20:37;;;;;;;28.23;12.07;;;;;;;6.71;77.83;99870.81;4941291;29;20271;-90
2021/12/16 11:23:11;;;;;;;20.63;10.50;;;;;;;8.18;76.00;100097.09;4943580;29;20177;-88
2021/12/16 11:25:38;;;;;;;11.97;7.70;;;;;;;8.44;76.47;100089.56;4945122;29;20184;-88
2021/12/16 11:28:10;;;;;;;13.60;7.27;;;;;;;4.80;75.79;99462.78;4944802;29;20169;-88
2021/12/16 11:31:01;;;;;;;8.17;5.43;;;;;;;8.22;76.13;100087.28;4955434;28;20165;-89
2021/12/16 11:33:42;;;;;;;19.10;10.10;;;;;;;4.08;75.94;99386.00;4956901;29;20172;-87
2021/12/16 11:36:12;;;;;;;11.50;5.27;;;;;;;7.02;75.70;99929.97;4953358;28;20218;-89
2021/12/16 11:38:54;;;;;;;10.60;5.97;;;;;;;8.08;75.03;100102.31;4945663;29;20271;-87
2021/12/16 11:41:35;;;;;;;8.13;5.07;;;;;;;7.72;76.24;100073.06;4954497;29;20207;-88
2021/12/16 11:44:23;;;;;;;10.13;6.23;;;;;;;6.83;76.88;99924.47;4960706;29;20187;-89
2021/12/16 11:46:53;;;;;;;16.23;8.30;;;;;;;8.07;76.68;100055.19;4949815;29;20168;-89
2021/12/16 11:49:25;;;;;;;12.77;7.13;;;;;;;8.08;76.71;100092.22;4955748;28;20192;-89
2021/12/16 11:51:56;;;;;;;12.67;7.57;;;;;;;6.83;75.56;99861.56;4954015;29;20204;-90
2021/12/16 11:54:34;;;;;;;6.67;4.00;;;;;;;6.73;76.06;99874.28;4959266;29;20268;-91
2021/12/16 11:57:03;;;;;;;7.30;4.57;;;;;;;7.87;75.08;100091.72;4954186;29;20184;-89
2021/12/16 11:59:43;;;;;;;9.33;5.73;;;;;;;5.81;76.76;99749.88;4954595;29;20172;-88
2021/12/16 12:02:32;;;;;;;12.93;7.27;;;;;;;5.15;76.50;99603.09;4960926;28;20211;-88
2021/12/16 12:05:28;;;;;;;13.70;7.93;;;;;;;8.03;75.74;100078.44;4932158;29;20240;-88
2021/12/16 12:08:21;;;;;;;11.17;6.30;;;;;;;7.85;75.71;100089.88;4941872;29;20177;-89
2021/12/16 12:11:00;;;;;;;13.17;6.83;;;;;;;7.18;76.32;99984.69;4929509;29;20173;-90
2021/12/16 12:13:34;;;;;;;15.13;8.60;;;;;;;6.54;76.23;99904.91;4942228;29;20178;-90
2021/12/16 12:16:11;;;;;;;13.27;7.70;;;;;;;7.66;76.96;100087.81;4942893;29;20176;-88
2021/12/16 12:18:47;;;;;;;9.30;5.10;;;;;;;7.57;75.52;100089.72;4944559;29;20232;-89
2021/12/16 12:21:25;;;;;;;11.73;7.20;;;;;;;7.71;77.20;100087.34;4944572;29;20219;-89
2021/12/16 12:24:17;;;;;;;9.07;4.83;;;;;;;6.21;76.76;99833.88;4944070;29;20179;-89
2021/12/16 12:27:22;;;;;;;9.27;5.63;;;;;;;6.72;77.58;99943.00;4885944;29;20208;-90
2021/12/16 12:29:56;;;;;;;12.83;7.00;;;;;;;6.50;77.97;99880.34;4886376;29;20171;-90
2021/12/16 12:32:32;;;;;;;6.67;4.13;;;;;;;7.86;77.76;100073.97;4889438;29;20490;-88
2021/12/16 12:35:07;;;;;;;8.73;4.77;;;;;;;7.55;77.45;100074.47;4873369;29;20265;-89
2021/12/16 12:37:36;;;;;;;16.97;8.93;;;;;;;7.60;79.04;100068.13;4865500;29;20244;-88
2021/12/16 12:40:11;;;;;;;12.40;6.33;;;;;;;5.89;76.89;99806.56;4923750;29;20233;-90
2021/12/16 12:42:37;;;;;;;11.23;5.87;;;;;;;3.98;76.52;99441.22;4891205;29;20228;-89
2021/12/16 12:45:11;;;;;;;8.87;5.40;;;;;;;6.37;76.91;99826.63;4928802;29;20235;-89
2021/12/16 12:47:40;;;;;;;8.03;5.43;;;;;;;6.12;76.05;99796.44;4914486;29;20856;-89
2021/12/16 12:50:27;;;;;;;20.40;9.30;;;;;;;8.02;76.50;100092.69;4903681;29;20193;-88
2021/12/16 12:52:55;;;;;;;15.07;8.93;;;;;;;8.02;77.09;100046.47;4917444;29;20186;-89
2021/12/16 12:55:32;;;;;;;13.83;6.87;;;;;;;7.44;77.54;100026.72;4903861;29;20198;-86
2021/12/16 12:58:12;;;;;;;20.17;8.67;;;;;;;5.89;77.13;99758.84;4919896;29;20197;-90
2021/12/16 13:00:56;;;;;;;13.43;8.13;;;;;;;4.79;77.46;99563.84;4903768;29;20237;-89
2021/12/16 13:03:34;;;;;;;10.53;5.83;;;;;;;5.72;77.89;99765.19;4931327;29;20255;-88
2021/12/16 13:06:09;;;;;;;11.00;6.20;;;;;;;7.51;77.72;100089.31;4940534;29;20177;-88
2021/12/16 13:08:40;;;;;;;7.50;5.07;;;;;;;5.73;77.09;99781.16;4946381;29;20744;-89
2021/12/16 13:11:13;;;;;;;15.37;8.10;;;;;;;6.87;78.05;99949.06;4934639;29;20205;-88
2021/12/16 13:14:21;;;;;;;12.47;7.17;;;;;;;7.84;77.52;100088.13;4976316;23;20221;-88
2021/12/16 13:27:42;;;;;;;21.73;8.73;;;;;;;5.55;76.37;99674.44;4877154;29;20247;-90
2021/12/16 13:32:45;;;;;;;14.60;7.70;;;;;;;6.12;75.90;99730.22;4894154;29;20196;-88
2021/12/16 13:37:54;;;;;;;10.80;6.27;;;;;;;7.68;77.00;100091.31;4872372;29;20254;-89
2021/12/16 13:40:31;;;;;;;13.03;7.03;;;;;;;4.40;77.92;99531.88;4853077;29;20210;-89
2021/12/16 13:43:02;;;;;;;15.20;7.37;;;;;;;7.68;79.37;100079.56;4869505;29;20180;-89
2021/12/16 13:45:51;;;;;;;15.90;8.17;;;;;;;4.17;78.40;99462.63;4851696;29;20200;-87
2021/12/16 13:48:51;;;;;;;9.20;5.53;;;;;;;5.65;78.75;99763.06;4868208;29;20604;-88
2021/12/16 14:03:51;;;;;;;8.33;5.13;;;;;;;6.97;81.40;100091.50;4870994;29;20258;-90
2021/12/16 14:06:53;;;;;;;9.30;5.47;;;;;;;4.01;81.54;99590.06;4887111;29;20183;-89
2021/12/16 14:09:27;;;;;;;10.73;6.57;;;;;;;6.90;82.12;100105.31;4870794;29;20269;-90
2021/12/16 14:23:06;;;;;;;26.53;15.53;;;;;;;6.09;82.32;99989.75;4886490;29;20323;-88
2021/12/16 14:25:53;;;;;;;14.73;8.60;;;;;;;6.07;82.12;99983.72;4896514;29;20436;-88
2021/12/16 14:36:53;;;;;;;20.20;11.37;;;;;;;5.26;83.59;99905.88;4862300;29;20192;-88
2021/12/16 14:45:10;;;;;;;24.60;10.90;;;;;;;6.26;84.27;100092.34;4789238;30;20429;-88
2021/12/16 14:47:28;;;;;;;18.10;8.97;;;;;;;6.14;83.89;100085.59;4777286;30;20424;-88
2021/12/16 14:49:53;;;;;;;30.43;13.20;;;;;;;4.72;84.00;99853.41;4774103;30;20454;-89
2021/12/16 14:52:22;;;;;;;29.90;13.60;;;;;;;5.76;84.36;100062.69;4789512;30;20425;-89
2021/12/16 14:54:55;;;;;;;22.93;12.77;;;;;;;5.97;84.48;100126.22;4807200;29;20308;-88
2021/12/16 14:57:28;;;;;;;16.93;8.33;;;;;;;2.22;84.58;99468.25;4808431;29;20416;-89
2021/12/16 14:59:54;;;;;;;32.83;9.57;;;;;;;5.16;84.89;99989.66;4806855;29;20489;-88
2021/12/16 15:02:26;;;;;;;27.47;11.37;;;;;;;5.80;84.21;100107.34;4809058;29;20440;-88
2021/12/16 15:04:52;;;;;;;31.53;14.03;;;;;;;5.20;84.89;99991.63;4806462;29;20504;-86
2021/12/16 15:07:20;;;;;;;16.83;9.50;;;;;;;3.78;84.78;99774.44;4813782;29;20428;-87